Terminal Aerodrome Forecast
Issued by NWS

Home | Current Version | Previous Version | Graphics & Text | Print | Product List | Glossary On
Versions: 1 2 3 4 5 6 7 8 9 10 11 12 13
000
FTUS43 KBIS 010525
TAFMOT
TAF
KMOT 010525Z 0106/0206 23005KT P6SM SCT200
     FM011600 23012KT P6SM SKC
     FM011800 23014G25KT P6SM FEW070 SCT180
     FM020100 22007KT P6SM SCT180=

USA.gov is the U.S. government's official web portal to all federal, state and local government web resources and services.